Leeuwarden Air Base

EHLW · Friesland, 荷兰

罗盘
风向 的 风向 的 风向 到 风向 320° Leeuwarden Air Base 5/23
风: 11 kt, 4 beaufort

1 kt

11 kt
改变
0 ft 1.000 2.000 3.000 4.000 5.000
Cloud Cloud Cloud Cloud
SCT 2.800
Cloud Cloud Cloud Cloud Cloud Cloud
BKN 3.200
Cloud Cloud Cloud Cloud Cloud Cloud Cloud Cloud
OVC 3.700
METAR EHLW 181055Z AUTO 32011KT 270V350 9999 SCT028 BKN032 OVC037 09/04 Q1019 BLU NOSIG

METAR Leeuwarden Air Base - EHLW/LWR

Leeuwarden Air Base是,荷兰中的中型机场。 该机场位于纬度53,22693和经度5,75363。 该机场有2条跑道: 5/23 和 9/27. 本场的ICAO机场代码为EHLW。 该机场的IATA代码为LWR。 机场在Amsterdam FIR中。

该航空气象观测是针对Leeuwarden Air Base在2024年4月18日 12:55, 当地时间进行的。

机场观察

风向为320°,速度为11 kt。 风向在270°和350°之间变化。

可见度为10 km 或者更多。

有疏云,零星散落的云朵在2.800 ft的高度, 碎云在3.200 ft的高度 和 乌云密布在3.700 ft的高度。 破损或更高的上限为3.200 ft。

温度为9 °C,阵风为4 °C。 露点为4 °C,相对湿度为71%。 海平面上的气压为1019 hPa (QNH)。

白天

今天,太阳从06:29升起,在20:43降落。 这适用于Leeuwarden Air Base,世界夏令时可能有所不同。 当地时间与世界标准时间之间的时差为+2 小时。 夏令时目前正在进行中。

公司介绍

我们没有关于这个机场的公司信息。

体会

到Vliegles.nl去找飞行课程,跳伞和其他飞行体验。 浏览页面,了解Leeuwarden Air Base附近所有可用的活动。 你也可以使用搜索功能来寻找你所在地附近的特定飞行课程、跳伞或其他飞行体验。

跑道

Id 标题 侧风 逆风 侧风 %
5/23 054°-234° 11 kt 100 %
9/27 090°-270° 8 kt 7 kt 77 %

逆风成分最大的方向会被突出显示,并用于横风计算。 这并不一定意味着这个方向在使用。

乌云

2.800 ft SCT 疏云,零星散落的云朵
3.200 ft BKN 碎云
3.700 ft OVC 乌云密布

温度 & 天气

温度 9 °C
露点 4 °C
相对湿度 71%
风寒 4 °C
Kp-index 0 (0-9)

白天

日出
06:29
中午
13:36
日落
20:43 (7:30)

小工具

你想在你的网站上有一个关于Leeuwarden Air Base的当前航空天气(METAR)的小部件吗?

显示HTML代码
报告变更